createdAt,value
2024-03-07T00:00:26.737Z,6.74
2024-03-07T00:01:26.720Z,6.73
2024-03-07T00:02:26.736Z,6.76
2024-03-07T00:03:26.704Z,6.77
2024-03-07T00:04:26.675Z,6.77
2024-03-07T00:05:26.795Z,6.77
2024-03-07T00:06:26.651Z,6.77
2024-03-07T00:07:26.656Z,6.80
2024-03-07T00:08:26.674Z,6.81
2024-03-07T00:09:26.632Z,6.80
2024-03-07T00:10:26.632Z,6.81
2024-03-07T00:11:26.686Z,6.80
2024-03-07T00:12:26.611Z,6.81
2024-03-07T00:13:26.588Z,6.81
2024-03-07T00:14:26.569Z,6.79
2024-03-07T00:15:26.624Z,6.76
2024-03-07T00:16:26.560Z,6.77
2024-03-07T00:17:26.562Z,6.80
2024-03-07T00:18:26.589Z,6.80
2024-03-07T00:19:26.527Z,6.80
2024-03-07T00:20:26.525Z,6.81
2024-03-07T00:21:26.537Z,6.84
2024-03-07T00:22:26.492Z,6.84
2024-03-07T00:23:26.487Z,6.81
2024-03-07T00:24:26.449Z,6.81
2024-03-07T00:25:26.466Z,6.80
2024-03-07T00:26:26.509Z,6.81
2024-03-07T00:27:26.466Z,6.84
2024-03-07T00:28:27.365Z,6.84
2024-03-07T00:29:26.482Z,6.84
2024-03-07T00:30:26.482Z,6.85
2024-03-07T00:31:26.441Z,6.81
2024-03-07T00:32:26.471Z,6.81
2024-03-07T00:33:28.497Z,6.79
2024-03-07T00:34:27.444Z,6.77
2024-03-07T00:35:26.476Z,6.76
2024-03-07T00:36:26.361Z,6.76
2024-03-07T00:37:26.378Z,6.76
2024-03-07T00:38:26.456Z,6.77
2024-03-07T00:39:26.373Z,6.76
2024-03-07T00:40:26.375Z,6.76
2024-03-07T00:41:26.355Z,6.76
2024-03-07T00:42:26.411Z,6.77
2024-03-07T00:43:26.284Z,6.76
2024-03-07T00:44:26.289Z,6.80
2024-03-07T00:45:26.416Z,6.80
2024-03-07T00:46:26.261Z,6.84
2024-03-07T00:47:26.355Z,6.84
2024-03-07T00:48:26.334Z,6.85
2024-03-07T00:49:26.202Z,6.81
2024-03-07T00:50:26.218Z,6.73
2024-03-07T00:51:26.488Z,6.73
2024-03-07T00:52:26.289Z,6.77
2024-03-07T00:53:26.184Z,6.79
2024-03-07T00:54:26.242Z,6.76
2024-03-07T00:55:26.190Z,6.77
2024-03-07T00:56:26.304Z,6.79
2024-03-07T00:57:26.150Z,6.76
2024-03-07T00:58:26.384Z,6.79
2024-03-07T00:59:26.107Z,6.76
2024-03-07T01:00:26.092Z,6.74
2024-03-07T01:01:26.186Z,6.76
2024-03-07T01:02:26.330Z,6.73
2024-03-07T01:03:26.025Z,6.74
2024-03-07T01:04:26.082Z,6.74
2024-03-07T01:05:26.159Z,6.71
2024-03-07T01:06:26.009Z,6.70
2024-03-07T01:07:26.053Z,6.73
2024-03-07T01:08:26.054Z,6.70
2024-03-07T01:09:25.985Z,6.66
2024-03-07T01:10:26.000Z,6.66
2024-03-07T01:11:25.977Z,6.64
2024-03-07T01:12:26.032Z,6.64
2024-03-07T01:13:25.940Z,6.64
2024-03-07T01:14:26.010Z,6.66
2024-03-07T01:15:25.905Z,6.66
2024-03-07T01:16:25.936Z,6.64
2024-03-07T01:17:25.953Z,6.66
2024-03-07T01:18:25.988Z,6.64
2024-03-07T01:19:25.966Z,6.64
2024-03-07T01:20:25.896Z,6.61
2024-03-07T01:21:25.847Z,6.59
2024-03-07T01:22:25.863Z,6.59
2024-03-07T01:23:25.911Z,6.56
2024-03-07T01:24:25.873Z,6.54
2024-03-07T01:25:25.799Z,6.55
2024-03-07T01:26:25.827Z,6.51
2024-03-07T01:27:25.896Z,6.52
2024-03-07T01:28:25.785Z,6.52
2024-03-07T01:29:25.899Z,6.52
2024-03-07T01:30:25.766Z,6.54
2024-03-07T01:31:25.752Z,6.55
2024-03-07T01:32:25.824Z,6.54
2024-03-07T01:33:25.778Z,6.49
2024-03-07T01:34:25.710Z,6.43
2024-03-07T01:35:25.733Z,6.41
2024-03-07T01:36:25.699Z,6.41
2024-03-07T01:37:25.674Z,6.43
2024-03-07T01:38:25.759Z,6.41
2024-03-07T01:39:25.666Z,6.38
2024-03-07T01:40:25.662Z,6.38
2024-03-07T01:41:25.694Z,6.37
2024-03-07T01:42:25.661Z,6.41
2024-03-07T01:43:25.686Z,6.37
2024-03-07T01:44:25.651Z,6.40
2024-03-07T01:45:25.609Z,6.40
2024-03-07T01:46:25.583Z,6.41
2024-03-07T01:47:25.678Z,6.38
2024-03-07T01:48:25.609Z,6.38
2024-03-07T01:49:25.577Z,6.41
2024-03-07T01:50:25.582Z,6.40
2024-03-07T01:51:25.639Z,6.37
2024-03-07T01:52:25.535Z,6.33
2024-03-07T01:53:25.600Z,6.34
2024-03-07T01:54:25.509Z,6.33
2024-03-07T01:55:25.554Z,6.31
2024-03-07T01:56:25.549Z,6.30
2024-03-07T01:57:25.488Z,6.28
2024-03-07T01:58:25.507Z,6.27
2024-03-07T01:59:25.642Z,6.22
2024-03-07T02:00:25.484Z,6.25
2024-03-07T02:01:25.450Z,6.19
2024-03-07T02:02:25.488Z,6.19
2024-03-07T02:03:25.451Z,6.18
2024-03-07T02:04:25.413Z,6.17
2024-03-07T02:05:25.551Z,6.18
2024-03-07T02:06:25.385Z,6.15
2024-03-07T02:07:25.400Z,6.12
2024-03-07T02:08:25.469Z,6.12
2024-03-07T02:09:25.332Z,6.11
2024-03-07T02:10:25.359Z,6.09
2024-03-07T02:11:25.479Z,6.08
2024-03-07T02:12:25.400Z,6.08
2024-03-07T02:13:25.318Z,6.04
2024-03-07T02:14:25.326Z,6.04
2024-03-07T02:15:25.403Z,6.04
2024-03-07T02:16:25.277Z,6.04
2024-03-07T02:17:25.338Z,6.03
2024-03-07T02:18:25.389Z,6.03
2024-03-07T02:19:25.284Z,6.03
2024-03-07T02:20:25.287Z,6.01
2024-03-07T02:21:25.261Z,6.00
2024-03-07T02:22:25.241Z,5.99
2024-03-07T02:23:25.286Z,5.99
2024-03-07T02:24:25.210Z,5.96
2024-03-07T02:25:25.217Z,5.96
2024-03-07T02:26:25.223Z,5.94
2024-03-07T02:27:25.170Z,5.91
2024-03-07T02:28:25.254Z,5.91
2024-03-07T02:29:25.175Z,5.93
2024-03-07T02:30:25.125Z,5.91
2024-03-07T02:31:25.122Z,5.93
2024-03-07T02:32:25.164Z,5.89
2024-03-07T02:33:25.197Z,5.90
2024-03-07T02:34:25.104Z,5.89
2024-03-07T02:35:25.347Z,5.86
2024-03-07T02:36:25.079Z,5.86
2024-03-07T02:37:25.097Z,5.86
2024-03-07T02:38:25.063Z,5.86
2024-03-07T02:39:25.018Z,5.86
2024-03-07T02:40:25.082Z,5.83
2024-03-07T02:41:25.055Z,5.85
2024-03-07T02:42:25.005Z,5.81
2024-03-07T02:43:25.036Z,5.79
2024-03-07T02:44:24.995Z,5.78
2024-03-07T02:45:25.038Z,5.76
2024-03-07T02:46:24.972Z,5.76
2024-03-07T02:47:25.106Z,5.72
2024-03-07T02:48:25.076Z,5.72
2024-03-07T02:49:24.941Z,5.71
2024-03-07T02:50:24.982Z,5.71
2024-03-07T02:51:24.930Z,5.67
2024-03-07T02:52:24.914Z,5.71
2024-03-07T02:53:24.914Z,5.61
2024-03-07T02:54:24.916Z,5.63
2024-03-07T02:55:24.954Z,5.60
2024-03-07T02:56:24.871Z,5.60
2024-03-07T02:57:24.844Z,5.60
2024-03-07T02:58:24.868Z,5.58
2024-03-07T02:59:24.834Z,5.57
2024-03-07T03:00:24.823Z,5.54
2024-03-07T03:01:24.872Z,5.51
2024-03-07T03:02:24.815Z,5.51
2024-03-07T03:03:24.799Z,5.49
2024-03-07T03:04:24.796Z,5.46
2024-03-07T03:05:24.818Z,5.48
2024-03-07T03:06:24.757Z,5.48
2024-03-07T03:07:24.752Z,5.46
2024-03-07T03:08:24.770Z,5.45
2024-03-07T03:09:24.719Z,5.43
2024-03-07T03:10:24.717Z,5.43
2024-03-07T03:11:24.798Z,5.42
2024-03-07T03:12:24.715Z,5.38
2024-03-07T03:13:24.752Z,5.39
2024-03-07T03:14:24.705Z,5.38
2024-03-07T03:15:24.679Z,5.36
2024-03-07T03:16:38.721Z,5.35
2024-03-07T03:17:25.726Z,5.35
2024-03-07T03:18:24.740Z,5.33
2024-03-07T03:19:24.634Z,5.31
2024-03-07T03:20:24.707Z,5.28
2024-03-07T03:21:24.619Z,5.28
2024-03-07T03:22:24.680Z,5.27
2024-03-07T03:23:24.666Z,5.27
2024-03-07T03:24:24.612Z,5.25
2024-03-07T03:25:24.594Z,5.22
2024-03-07T03:26:24.567Z,5.21
2024-03-07T03:27:24.537Z,5.20
2024-03-07T03:28:24.676Z,5.20
2024-03-07T03:29:24.595Z,5.20
2024-03-07T03:30:24.528Z,5.20
2024-03-07T03:31:24.482Z,5.17
2024-03-07T03:32:24.532Z,5.13
2024-03-07T03:33:24.655Z,5.13
2024-03-07T03:34:24.532Z,5.15
2024-03-07T03:35:24.472Z,5.13
2024-03-07T03:36:24.501Z,5.12
2024-03-07T03:37:24.416Z,5.12
2024-03-07T03:38:24.554Z,5.09
2024-03-07T03:39:24.422Z,5.07
2024-03-07T03:40:24.419Z,5.06
2024-03-07T03:41:24.515Z,5.03
2024-03-07T03:42:24.371Z,5.04
2024-03-07T03:43:24.885Z,5.02
2024-03-07T03:44:24.467Z,5.00
2024-03-07T03:45:24.344Z,4.99
2024-03-07T03:46:24.337Z,4.99
2024-03-07T03:47:24.340Z,4.97
2024-03-07T03:48:24.455Z,4.97
2024-03-07T03:49:24.374Z,4.96
2024-03-07T03:50:24.646Z,4.96
2024-03-07T03:51:24.266Z,4.96
2024-03-07T03:52:24.272Z,4.92
2024-03-07T03:53:24.304Z,4.94
2024-03-07T03:54:24.261Z,4.92
2024-03-07T03:55:24.240Z,4.92
2024-03-07T03:56:24.258Z,4.92
2024-03-07T03:57:24.214Z,4.92
2024-03-07T03:58:24.226Z,4.88
2024-03-07T03:59:24.289Z,4.88
2024-03-07T04:00:24.502Z,4.88
2024-03-07T04:01:24.253Z,4.85
2024-03-07T04:02:24.215Z,4.84
2024-03-07T04:03:24.173Z,4.85
2024-03-07T04:04:24.174Z,4.85
2024-03-07T04:05:24.161Z,4.85
2024-03-07T04:06:24.104Z,4.82
2024-03-07T04:07:24.109Z,4.82
2024-03-07T04:08:24.151Z,4.78
2024-03-07T04:09:24.105Z,4.77
2024-03-07T04:10:24.090Z,4.78
2024-03-07T04:11:24.144Z,4.80
2024-03-07T04:12:24.081Z,4.78
2024-03-07T04:13:24.079Z,4.75
2024-03-07T04:14:24.068Z,4.75
2024-03-07T04:15:24.030Z,4.75
2024-03-07T04:16:24.049Z,4.73
2024-03-07T04:17:24.134Z,4.72
2024-03-07T04:18:24.083Z,4.69
2024-03-07T04:19:23.986Z,4.70
2024-03-07T04:20:24.002Z,4.72
2024-03-07T04:21:23.978Z,4.69
2024-03-07T04:22:23.988Z,4.66
2024-03-07T04:23:23.997Z,4.67
2024-03-07T04:24:23.945Z,4.66
2024-03-07T04:25:23.957Z,4.65
2024-03-07T04:26:23.965Z,4.63
2024-03-07T04:27:23.932Z,4.63
2024-03-07T04:28:23.989Z,4.63
2024-03-07T04:29:24.036Z,4.62
2024-03-07T04:30:23.993Z,4.60
2024-03-07T04:31:23.858Z,4.59
2024-03-07T04:32:23.869Z,4.58
2024-03-07T04:33:23.994Z,4.59
2024-03-07T04:34:23.988Z,4.58
2024-03-07T04:35:23.999Z,4.58
2024-03-07T04:36:23.799Z,4.54
2024-03-07T04:37:23.819Z,4.55
2024-03-07T04:38:23.816Z,4.52
2024-03-07T04:39:23.802Z,4.51
2024-03-07T04:40:23.764Z,4.50
2024-03-07T04:41:23.793Z,4.50
2024-03-07T04:42:23.823Z,4.51
2024-03-07T04:43:23.740Z,4.50
2024-03-07T04:44:23.796Z,4.47
2024-03-07T04:45:23.793Z,4.47
2024-03-07T04:46:23.722Z,4.45
2024-03-07T04:47:23.811Z,4.44
2024-03-07T04:48:24.026Z,4.44
2024-03-07T04:49:23.890Z,4.42
2024-03-07T04:50:23.915Z,4.41
2024-03-07T04:51:23.648Z,4.41
2024-03-07T04:52:23.823Z,4.42
2024-03-07T04:53:23.746Z,4.37
2024-03-07T04:54:23.653Z,4.40
2024-03-07T04:55:23.650Z,4.40
2024-03-07T04:56:23.668Z,4.36
2024-03-07T04:57:23.548Z,4.36
2024-03-07T04:58:23.602Z,4.34
2024-03-07T04:59:23.653Z,4.32
2024-03-07T05:00:23.614Z,4.30
2024-03-07T05:01:23.546Z,4.32
2024-03-07T05:02:23.511Z,4.30
2024-03-07T05:03:25.876Z,4.30
2024-03-07T05:04:23.464Z,4.29
2024-03-07T05:05:24.360Z,4.29
2024-03-07T05:06:23.467Z,4.27
2024-03-07T05:07:23.441Z,4.29
2024-03-07T05:08:23.535Z,4.26
2024-03-07T05:09:23.524Z,4.24
2024-03-07T05:10:23.538Z,4.26
2024-03-07T05:11:23.496Z,4.26
2024-03-07T05:12:23.516Z,4.23
2024-03-07T05:13:23.377Z,4.24
2024-03-07T05:14:23.655Z,4.23
2024-03-07T05:15:23.476Z,4.22
2024-03-07T05:16:23.347Z,4.20
2024-03-07T05:17:23.407Z,4.18
2024-03-07T05:18:23.475Z,4.18
2024-03-07T05:19:23.313Z,4.15
2024-03-07T05:20:23.337Z,4.14
2024-03-07T05:21:23.296Z,4.15
2024-03-07T05:22:23.319Z,4.15
2024-03-07T05:23:23.290Z,4.15
2024-03-07T05:24:23.349Z,4.15
2024-03-07T05:25:23.707Z,4.14
2024-03-07T05:26:23.237Z,4.14
2024-03-07T05:27:23.235Z,4.11
2024-03-07T05:28:23.250Z,4.14
2024-03-07T05:29:23.210Z,4.12
2024-03-07T05:30:23.267Z,4.09
2024-03-07T05:31:23.270Z,4.09
2024-03-07T05:32:23.322Z,4.08
2024-03-07T05:33:23.344Z,4.05
2024-03-07T05:34:23.238Z,4.04
2024-03-07T05:35:23.302Z,4.02
2024-03-07T05:36:23.187Z,4.02
2024-03-07T05:37:23.172Z,4.02
2024-03-07T05:38:23.228Z,4.02
2024-03-07T05:39:23.099Z,3.98
2024-03-07T05:40:23.174Z,4.00
2024-03-07T05:41:23.312Z,4.00
2024-03-07T05:42:23.114Z,4.00
2024-03-07T05:43:23.064Z,3.98
2024-03-07T05:44:23.085Z,3.98
2024-03-07T05:45:23.134Z,3.98
2024-03-07T05:46:23.065Z,3.98
2024-03-07T05:47:23.540Z,3.98
2024-03-07T05:48:23.238Z,3.97
2024-03-07T05:49:23.017Z,3.98
2024-03-07T05:50:23.172Z,3.98
2024-03-07T05:51:23.210Z,3.98
2024-03-07T05:52:23.137Z,3.97
2024-03-07T05:53:23.009Z,3.96
2024-03-07T05:54:22.964Z,3.94
2024-03-07T05:55:22.980Z,3.93
2024-03-07T05:56:23.112Z,3.93
2024-03-07T05:57:23.018Z,3.96
2024-03-07T05:58:22.921Z,4.02
2024-03-07T05:59:23.055Z,4.08
2024-03-07T06:00:23.013Z,4.15
2024-03-07T06:01:23.021Z,4.16
2024-03-07T06:02:22.899Z,4.16
2024-03-07T06:03:22.882Z,4.12
2024-03-07T06:04:22.877Z,4.08
2024-03-07T06:05:22.971Z,4.05
2024-03-07T06:06:22.958Z,4.04
2024-03-07T06:07:22.859Z,4.04
2024-03-07T06:08:22.904Z,4.05
2024-03-07T06:09:22.931Z,4.04
2024-03-07T06:10:22.797Z,4.05
2024-03-07T06:11:23.271Z,4.02
2024-03-07T06:12:27.487Z,4.04
2024-03-07T06:13:23.861Z,4.02
2024-03-07T06:14:22.765Z,4.02
2024-03-07T06:15:22.793Z,4.00
2024-03-07T06:16:22.804Z,3.97
2024-03-07T06:17:23.327Z,3.97
2024-03-07T06:18:22.813Z,3.94
2024-03-07T06:19:22.759Z,3.88
2024-03-07T06:20:22.717Z,3.90
2024-03-07T06:21:22.720Z,3.91
2024-03-07T06:22:22.733Z,3.90
2024-03-07T06:23:22.782Z,3.88
2024-03-07T06:24:22.661Z,3.88
2024-03-07T06:25:22.665Z,3.88
2024-03-07T06:26:22.653Z,3.88
2024-03-07T06:27:22.644Z,3.91
2024-03-07T06:28:22.636Z,3.90
2024-03-07T06:29:22.636Z,3.93
2024-03-07T06:30:22.674Z,3.93
2024-03-07T06:31:22.669Z,3.96
2024-03-07T06:32:22.720Z,3.96
2024-03-07T06:33:24.776Z,3.97
2024-03-07T06:34:22.613Z,3.98
2024-03-07T06:35:22.611Z,3.97
2024-03-07T06:36:22.560Z,3.97
2024-03-07T06:37:22.573Z,3.98
2024-03-07T06:38:22.869Z,4.02
2024-03-07T06:39:22.492Z,4.04
2024-03-07T06:40:22.570Z,4.04
2024-03-07T06:41:22.517Z,4.02
2024-03-07T06:42:22.528Z,4.00
2024-03-07T06:43:22.461Z,4.02
2024-03-07T06:44:22.462Z,4.05
2024-03-07T06:45:22.447Z,4.06
2024-03-07T06:46:22.445Z,4.05
2024-03-07T06:47:22.433Z,4.06
2024-03-07T06:48:22.625Z,4.05
2024-03-07T06:49:22.412Z,4.02
2024-03-07T06:50:30.324Z,4.04
2024-03-07T06:51:23.401Z,4.08
2024-03-07T06:52:22.409Z,4.12
2024-03-07T06:53:22.438Z,4.14
2024-03-07T06:54:22.353Z,4.15
2024-03-07T06:55:22.333Z,4.15
2024-03-07T06:56:22.358Z,4.12
2024-03-07T06:57:22.305Z,4.11
2024-03-07T06:58:22.327Z,4.11
2024-03-07T06:59:22.516Z,4.15
2024-03-07T07:00:22.305Z,4.14
2024-03-07T07:01:22.472Z,4.16
2024-03-07T07:02:22.274Z,4.20
2024-03-07T07:03:22.242Z,4.23
2024-03-07T07:04:22.257Z,4.26
2024-03-07T07:05:22.276Z,4.32
2024-03-07T07:06:22.262Z,4.34
2024-03-07T07:07:22.197Z,4.34
2024-03-07T07:08:22.229Z,4.37
2024-03-07T07:09:22.182Z,4.37
2024-03-07T07:10:22.176Z,4.34
2024-03-07T07:11:22.292Z,4.30
2024-03-07T07:12:22.239Z,4.30
2024-03-07T07:13:22.239Z,4.30
2024-03-07T07:14:22.317Z,4.32
2024-03-07T07:15:22.223Z,4.33
2024-03-07T07:16:22.117Z,4.34
2024-03-07T07:17:22.196Z,4.42
2024-03-07T07:18:22.252Z,4.44
2024-03-07T07:19:22.329Z,4.54
2024-03-07T07:20:22.284Z,4.59
2024-03-07T07:21:22.162Z,4.62
2024-03-07T07:22:22.093Z,4.54
2024-03-07T07:23:22.249Z,4.55
2024-03-07T07:24:22.264Z,4.58
2024-03-07T07:25:22.044Z,4.62
2024-03-07T07:26:22.064Z,4.63
2024-03-07T07:27:22.041Z,4.63
2024-03-07T07:28:21.997Z,4.60
2024-03-07T07:29:22.103Z,4.62
2024-03-07T07:30:21.989Z,4.58
2024-03-07T07:31:21.971Z,4.58
2024-03-07T07:32:22.330Z,4.62
2024-03-07T07:33:22.063Z,4.66
2024-03-07T07:34:22.033Z,4.72
2024-03-07T07:35:22.150Z,4.73
2024-03-07T07:36:21.927Z,4.75
2024-03-07T07:37:21.963Z,4.80
2024-03-07T07:38:21.965Z,4.84
2024-03-07T07:39:21.901Z,4.88
2024-03-07T07:40:21.914Z,4.92
2024-03-07T07:41:21.912Z,4.89
2024-03-07T07:42:21.869Z,4.80
2024-03-07T07:43:29.258Z,4.77
2024-03-07T07:44:22.896Z,4.75
2024-03-07T07:45:21.831Z,4.80
2024-03-07T07:46:21.841Z,4.91
2024-03-07T07:47:21.817Z,4.97
2024-03-07T07:48:21.955Z,5.04
2024-03-07T07:49:21.794Z,5.10
2024-03-07T07:50:21.809Z,5.10
2024-03-07T07:51:21.767Z,5.02
2024-03-07T07:52:21.743Z,5.02
2024-03-07T07:53:21.775Z,5.03
2024-03-07T07:54:21.836Z,5.04
2024-03-07T07:55:21.715Z,5.00
2024-03-07T07:56:24.029Z,4.97
2024-03-07T07:57:21.702Z,5.02
2024-03-07T07:58:21.705Z,5.09
2024-03-07T07:59:21.712Z,5.09
2024-03-07T08:00:21.670Z,5.07
2024-03-07T08:01:21.726Z,5.04
2024-03-07T08:02:21.690Z,5.10
2024-03-07T08:03:21.737Z,5.15
2024-03-07T08:04:21.623Z,5.20
2024-03-07T08:05:21.683Z,5.25
2024-03-07T08:06:21.612Z,5.28
2024-03-07T08:07:21.612Z,5.21
2024-03-07T08:08:21.689Z,5.24
2024-03-07T08:09:21.585Z,5.28
2024-03-07T08:10:21.915Z,5.40
2024-03-07T08:11:21.659Z,5.46
2024-03-07T08:12:21.587Z,5.48
2024-03-07T08:13:21.554Z,5.53
2024-03-07T08:14:21.566Z,5.51
2024-03-07T08:15:21.539Z,5.42
2024-03-07T08:16:21.510Z,5.42
2024-03-07T08:17:21.517Z,5.42
2024-03-07T08:18:21.666Z,5.46
2024-03-07T08:19:21.517Z,5.53
2024-03-07T08:20:21.497Z,5.53
2024-03-07T08:21:21.494Z,5.56
2024-03-07T08:22:21.443Z,5.51
2024-03-07T08:23:21.493Z,5.48
2024-03-07T08:24:21.433Z,5.51
2024-03-07T08:25:21.463Z,5.53
2024-03-07T08:26:21.436Z,5.57
2024-03-07T08:27:21.395Z,5.61
2024-03-07T08:28:21.461Z,5.63
2024-03-07T08:29:21.416Z,5.74
2024-03-07T08:30:21.353Z,5.82
2024-03-07T08:31:21.356Z,5.89
2024-03-07T08:32:21.407Z,5.89
2024-03-07T08:33:21.527Z,5.85
2024-03-07T08:34:21.315Z,5.85
2024-03-07T08:35:21.463Z,5.83
2024-03-07T08:36:21.316Z,5.89
2024-03-07T08:37:21.308Z,5.86
2024-03-07T08:38:21.299Z,5.85
2024-03-07T08:39:21.305Z,5.86
2024-03-07T08:40:21.901Z,5.93
2024-03-07T08:41:21.307Z,5.93
2024-03-07T08:42:21.259Z,5.91
2024-03-07T08:43:21.262Z,5.85
2024-03-07T08:44:21.259Z,5.91
2024-03-07T08:45:21.216Z,5.82
2024-03-07T08:46:21.252Z,5.79
2024-03-07T08:47:21.222Z,5.83
2024-03-07T08:48:21.319Z,5.93
2024-03-07T08:49:21.187Z,5.96
2024-03-07T08:50:21.333Z,5.96
2024-03-07T08:51:21.157Z,5.78
2024-03-07T08:52:21.139Z,5.85
2024-03-07T08:53:21.170Z,5.94
2024-03-07T08:54:21.142Z,5.97
2024-03-07T08:55:21.110Z,6.08
2024-03-07T08:56:21.139Z,6.09
2024-03-07T08:57:21.081Z,6.18
2024-03-07T08:58:21.099Z,6.21
2024-03-07T08:59:21.149Z,6.34
2024-03-07T09:00:21.057Z,6.40
2024-03-07T09:01:21.086Z,6.54
2024-03-07T09:02:21.142Z,6.54
2024-03-07T09:03:21.048Z,6.52
2024-03-07T09:04:21.052Z,6.52
2024-03-07T09:05:21.039Z,6.52
2024-03-07T09:06:21.010Z,6.58
2024-03-07T09:07:21.000Z,6.51
2024-03-07T09:08:21.043Z,6.55
2024-03-07T09:09:20.983Z,6.56
2024-03-07T09:10:21.112Z,6.67
2024-03-07T09:11:21.080Z,6.71
2024-03-07T09:12:21.041Z,6.73
2024-03-07T09:13:21.039Z,6.70
2024-03-07T09:14:20.926Z,6.73
2024-03-07T09:15:20.943Z,6.74
2024-03-07T09:16:21.200Z,6.74
2024-03-07T09:17:20.927Z,6.62
2024-03-07T09:18:20.945Z,6.71
2024-03-07T09:19:20.871Z,6.80
2024-03-07T09:20:21.169Z,6.91
2024-03-07T09:21:20.840Z,6.98
2024-03-07T09:22:20.867Z,6.95
2024-03-07T09:23:20.910Z,6.77
2024-03-07T09:24:20.895Z,6.81
2024-03-07T09:25:21.110Z,6.92
2024-03-07T09:26:20.859Z,7.02
2024-03-07T09:27:20.805Z,6.99
2024-03-07T09:28:20.759Z,7.06
2024-03-07T09:29:20.949Z,7.12
2024-03-07T09:30:21.000Z,7.15
2024-03-07T09:31:20.738Z,7.20
2024-03-07T09:32:20.751Z,7.24
2024-03-07T09:33:21.092Z,7.28
2024-03-07T09:34:20.737Z,7.37
2024-03-07T09:35:20.862Z,7.23
2024-03-07T09:36:20.678Z,7.21
2024-03-07T09:37:20.692Z,7.20
2024-03-07T09:38:20.726Z,7.13
2024-03-07T09:39:20.673Z,7.25
2024-03-07T09:40:20.677Z,7.30
2024-03-07T09:41:20.667Z,7.37
2024-03-07T09:42:20.713Z,7.46
2024-03-07T09:43:20.715Z,7.57
2024-03-07T09:44:20.757Z,7.50
2024-03-07T09:45:21.703Z,7.40
2024-03-07T09:46:20.637Z,7.39
2024-03-07T09:47:20.641Z,7.39
2024-03-07T09:48:20.703Z,7.31
2024-03-07T09:49:20.603Z,7.35
2024-03-07T09:50:20.927Z,7.43
2024-03-07T09:51:20.529Z,7.48
2024-03-07T09:52:20.530Z,7.53
2024-03-07T09:53:20.584Z,7.58
2024-03-07T09:54:20.499Z,7.67
2024-03-07T09:55:20.549Z,7.71
2024-03-07T09:56:20.566Z,7.75
2024-03-07T09:57:20.478Z,7.83
2024-03-07T09:58:20.461Z,8.00
2024-03-07T09:59:20.478Z,7.95
2024-03-07T10:00:20.477Z,8.04
2024-03-07T10:01:20.566Z,8.05
2024-03-07T10:02:20.462Z,8.01
2024-03-07T10:03:20.516Z,7.92
2024-03-07T10:04:20.430Z,7.85
2024-03-07T10:05:20.458Z,7.85
2024-03-07T10:06:20.415Z,7.80
2024-03-07T10:07:20.579Z,7.86
2024-03-07T10:08:20.401Z,7.95
2024-03-07T10:09:20.369Z,8.00
2024-03-07T10:10:20.416Z,8.10
2024-03-07T10:11:20.398Z,8.18
2024-03-07T10:12:20.436Z,8.11
2024-03-07T10:13:20.324Z,8.07
2024-03-07T10:14:20.314Z,8.10
2024-03-07T10:15:20.460Z,8.08
2024-03-07T10:16:20.518Z,8.10
2024-03-07T10:17:20.338Z,8.16
2024-03-07T10:18:20.489Z,8.20
2024-03-07T10:19:20.234Z,8.38
2024-03-07T10:20:20.342Z,8.40
2024-03-07T10:21:20.328Z,8.37
2024-03-07T10:22:20.370Z,8.30
2024-03-07T10:23:20.281Z,8.36
2024-03-07T10:24:20.203Z,8.40
2024-03-07T10:25:20.219Z,8.48
2024-03-07T10:26:20.286Z,8.53
2024-03-07T10:27:20.238Z,8.55
2024-03-07T10:28:20.188Z,8.55
2024-03-07T10:29:20.247Z,8.53
2024-03-07T10:30:20.149Z,8.38
2024-03-07T10:31:20.214Z,8.44
2024-03-07T10:32:20.132Z,8.34
2024-03-07T10:33:20.484Z,8.30
2024-03-07T10:34:20.089Z,8.40
2024-03-07T10:35:20.104Z,8.33
2024-03-07T10:36:20.198Z,8.20
2024-03-07T10:37:20.079Z,8.12
2024-03-07T10:38:20.481Z,8.12
2024-03-07T10:39:20.039Z,8.25
2024-03-07T10:40:20.026Z,8.30
2024-03-07T10:41:20.058Z,8.25
2024-03-07T10:42:20.023Z,8.25
2024-03-07T10:43:20.105Z,8.36
2024-03-07T10:44:20.037Z,8.44
2024-03-07T10:45:19.968Z,8.53
2024-03-07T10:46:20.004Z,8.56
2024-03-07T10:47:20.065Z,8.44
2024-03-07T10:48:23.251Z,8.44
2024-03-07T10:49:20.996Z,8.45
2024-03-07T10:50:20.020Z,8.58
2024-03-07T10:51:20.022Z,8.56
2024-03-07T10:52:19.921Z,8.59
2024-03-07T10:53:19.934Z,8.56
2024-03-07T10:54:19.894Z,8.44
2024-03-07T10:55:19.936Z,8.34
2024-03-07T10:56:19.931Z,8.25
2024-03-07T10:57:19.882Z,8.20
2024-03-07T10:58:19.860Z,8.23
2024-03-07T10:59:19.917Z,8.28
2024-03-07T11:00:19.880Z,8.26
2024-03-07T11:01:19.899Z,8.34
2024-03-07T11:02:19.851Z,8.43
2024-03-07T11:03:19.780Z,8.40
2024-03-07T11:04:19.794Z,8.45
2024-03-07T11:05:19.804Z,8.40
2024-03-07T11:06:19.941Z,8.40
2024-03-07T11:07:19.749Z,8.43
2024-03-07T11:08:19.785Z,8.30
2024-03-07T11:09:19.768Z,8.30
2024-03-07T11:10:19.776Z,8.34
2024-03-07T11:11:19.789Z,8.38
2024-03-07T11:12:19.738Z,8.45
2024-03-07T11:13:19.727Z,8.40
2024-03-07T11:14:19.773Z,8.38
2024-03-07T11:15:19.677Z,8.48
2024-03-07T11:16:19.679Z,8.44
2024-03-07T11:17:19.692Z,8.45
2024-03-07T11:18:19.768Z,8.58
2024-03-07T11:19:19.621Z,8.53
2024-03-07T11:20:19.721Z,8.62
2024-03-07T11:21:19.634Z,8.52
2024-03-07T11:22:19.638Z,8.41
2024-03-07T11:23:19.671Z,8.30
2024-03-07T11:24:19.759Z,8.36
2024-03-07T11:26:13.672Z,8.56
2024-03-07T11:27:16.703Z,8.58
2024-03-07T11:28:13.948Z,8.63
2024-03-07T11:29:13.920Z,8.65
2024-03-07T11:30:13.949Z,8.55
2024-03-07T11:31:13.892Z,8.50
2024-03-07T11:32:13.908Z,8.44
2024-03-07T11:33:14.149Z,8.34
2024-03-07T11:34:13.874Z,8.22
2024-03-07T11:35:13.867Z,8.36
2024-03-07T11:36:13.982Z,8.41
2024-03-07T11:37:13.830Z,8.25
2024-03-07T11:38:13.847Z,8.36
2024-03-07T11:39:13.871Z,8.44
2024-03-07T11:40:13.877Z,8.62
2024-03-07T11:41:13.810Z,8.68
2024-03-07T11:42:13.762Z,8.68
2024-03-07T11:43:13.913Z,8.65
2024-03-07T11:44:13.769Z,8.53
2024-03-07T11:45:13.777Z,8.55
2024-03-07T11:46:13.786Z,8.65
2024-03-07T11:47:13.784Z,8.68
2024-03-07T11:48:14.175Z,8.62
2024-03-07T11:49:13.706Z,8.53
2024-03-07T11:50:13.867Z,8.47
2024-03-07T11:51:13.717Z,8.59
2024-03-07T11:52:13.669Z,8.61
2024-03-07T11:53:13.851Z,8.61
2024-03-07T11:54:13.655Z,8.59
2024-03-07T11:55:13.657Z,8.52
2024-03-07T11:56:13.672Z,8.44
2024-03-07T11:57:13.646Z,8.41
2024-03-07T11:58:13.645Z,8.40
2024-03-07T11:59:13.592Z,8.28
2024-03-07T12:00:13.640Z,8.36
2024-03-07T12:01:13.597Z,8.55
2024-03-07T12:02:13.631Z,8.63
2024-03-07T12:03:13.682Z,8.50
2024-03-07T12:04:13.552Z,8.50
2024-03-07T12:05:13.555Z,8.45
2024-03-07T12:06:14.026Z,8.59
2024-03-07T12:07:13.567Z,8.56
2024-03-07T12:08:13.508Z,8.66
2024-03-07T12:09:13.545Z,8.74
2024-03-07T12:10:13.500Z,8.79
2024-03-07T12:11:13.506Z,8.87
2024-03-07T12:12:13.630Z,8.89
2024-03-07T12:13:13.464Z,8.89
2024-03-07T12:14:13.568Z,8.95
2024-03-07T12:15:13.469Z,8.96
2024-03-07T12:16:13.406Z,9.04
2024-03-07T12:17:13.498Z,9.11
2024-03-07T12:18:13.506Z,8.95
2024-03-07T12:19:13.387Z,8.84
2024-03-07T12:20:13.440Z,8.71
2024-03-07T12:21:13.501Z,8.73
2024-03-07T12:22:13.429Z,8.76
2024-03-07T12:23:13.561Z,8.84
2024-03-07T12:24:13.420Z,8.95
2024-03-07T12:25:13.363Z,8.98
2024-03-07T12:26:13.313Z,8.83
2024-03-07T12:27:13.360Z,8.83
2024-03-07T12:28:13.330Z,8.79
2024-03-07T12:29:13.349Z,8.77
2024-03-07T12:30:13.315Z,8.95
2024-03-07T12:31:13.423Z,8.95
2024-03-07T12:32:13.270Z,8.87
2024-03-07T12:33:13.452Z,8.76
2024-03-07T12:34:13.229Z,8.70
2024-03-07T12:35:13.261Z,8.68
2024-03-07T12:36:13.252Z,8.81
2024-03-07T12:37:13.247Z,8.81
2024-03-07T12:38:13.185Z,8.62
2024-03-07T12:39:13.283Z,8.56
2024-03-07T12:40:13.266Z,8.63
2024-03-07T12:41:13.156Z,8.76
2024-03-07T12:42:13.253Z,8.76
2024-03-07T12:43:13.179Z,8.73
2024-03-07T12:44:13.178Z,8.81
2024-03-07T12:45:13.187Z,8.83
2024-03-07T12:46:13.094Z,8.86
2024-03-07T12:47:13.141Z,8.91
2024-03-07T12:48:13.204Z,8.92
2024-03-07T12:49:13.086Z,8.92
2024-03-07T12:50:13.060Z,8.96
2024-03-07T12:51:13.067Z,9.02
2024-03-07T12:52:13.041Z,9.11
2024-03-07T12:53:13.276Z,9.01
2024-03-07T12:54:13.145Z,9.02
2024-03-07T12:55:13.117Z,8.99
2024-03-07T12:56:13.014Z,8.98
2024-03-07T12:57:13.030Z,9.02
2024-03-07T12:58:13.003Z,8.99
2024-03-07T12:59:13.010Z,9.10
2024-03-07T13:00:12.988Z,9.04
2024-03-07T13:01:12.937Z,8.94
2024-03-07T13:02:13.033Z,8.94
2024-03-07T13:03:13.032Z,8.92
2024-03-07T13:04:12.914Z,8.83
2024-03-07T13:05:12.959Z,8.79
2024-03-07T13:06:13.008Z,8.91
2024-03-07T13:07:12.904Z,8.79
2024-03-07T13:08:12.919Z,8.61
2024-03-07T13:09:13.188Z,8.68
2024-03-07T13:10:12.841Z,8.71
2024-03-07T13:11:12.930Z,8.77
2024-03-07T13:12:12.957Z,8.84
2024-03-07T13:13:12.934Z,8.92
2024-03-07T13:14:12.808Z,9.04
2024-03-07T13:15:12.876Z,9.21
2024-03-07T13:16:12.810Z,9.23
2024-03-07T13:17:12.805Z,9.29
2024-03-07T13:18:12.901Z,9.33
2024-03-07T13:19:12.748Z,9.31